Time;durP1;ratioP1;P1;durP2;ratioP2;P2;SDS_P1;SDS_P2;PMS_P1;PMS_P2;Temp;Humidity;BMP_temperature;BMP_pressure;BME280_temperature;BME280_humidity;BME280_pressure;Samples;Min_cycle;Max_cycle;Signal;HPM_P1;HPM_P2
2022/07/19 00:01:14;;;;;;;1999.90;999.90;;;;;;;16.43;100.00;100268.75;5046180;28;20045;-53
2022/07/19 00:03:59;;;;;;;1999.90;999.90;;;;;;;16.44;100.00;100275.75;5045809;28;20057;-54
2022/07/19 00:06:44;;;;;;;1999.90;999.90;;;;;;;16.37;100.00;100274.31;5046207;28;20033;-54
2022/07/19 00:09:28;;;;;;;1999.90;999.90;;;;;;;16.23;100.00;100261.66;5044256;28;20049;-53
2022/07/19 00:12:13;;;;;;;1999.90;999.90;;;;;;;16.20;100.00;100259.16;5045028;28;20041;-53
2022/07/19 00:14:58;;;;;;;1999.90;999.90;;;;;;;16.11;100.00;100248.94;5045870;28;20048;-53
2022/07/19 00:17:45;;;;;;;1999.90;999.90;;;;;;;16.14;100.00;100264.69;5042225;28;20053;-53
2022/07/19 00:20:30;;;;;;;1999.90;999.90;;;;;;;15.99;100.00;100252.97;5047179;28;20041;-53
2022/07/19 00:23:14;;;;;;;1999.90;999.90;;;;;;;15.98;100.00;100255.66;5046062;28;20049;-53
2022/07/19 00:26:01;;;;;;;1999.90;999.90;;;;;;;15.89;100.00;100267.44;5044604;28;20061;-53
2022/07/19 00:28:45;;;;;;;1999.90;999.90;;;;;;;15.77;100.00;100268.81;5047696;28;20040;-53
2022/07/19 00:31:30;;;;;;;1999.90;999.90;;;;;;;15.71;100.00;100276.97;5047475;28;20045;-53
2022/07/19 00:34:15;;;;;;;1999.90;999.90;;;;;;;15.69;100.00;100272.66;5045250;28;20877;-53
2022/07/19 00:37:00;;;;;;;1999.90;999.90;;;;;;;15.60;100.00;100269.44;5045917;28;20053;-53
2022/07/19 00:39:45;;;;;;;1999.90;999.90;;;;;;;15.62;100.00;100272.84;5047352;28;20048;-53
2022/07/19 00:42:29;;;;;;;1999.90;999.90;;;;;;;15.47;100.00;100269.94;5044729;28;20048;-53
2022/07/19 00:45:14;;;;;;;1999.90;999.90;;;;;;;15.53;100.00;100269.69;5042263;28;20045;-54
2022/07/19 00:47:59;;;;;;;1999.90;999.90;;;;;;;15.37;100.00;100262.38;5045380;28;20049;-53
2022/07/19 00:50:44;;;;;;;1999.90;999.90;;;;;;;15.39;100.00;100271.09;5046355;28;20135;-53
2022/07/19 00:53:30;;;;;;;1999.90;999.90;;;;;;;15.34;100.00;100261.63;5044340;28;20044;-53
2022/07/19 00:56:17;;;;;;;1999.90;999.90;;;;;;;15.30;100.00;100271.44;5042331;28;20510;-53
2022/07/19 00:59:03;;;;;;;1999.90;999.90;;;;;;;15.24;100.00;100268.16;5042126;28;20360;-53
2022/07/19 01:01:47;;;;;;;1999.90;999.90;;;;;;;15.19;100.00;100273.63;5041541;28;20052;-53
2022/07/19 01:04:33;;;;;;;1999.90;999.90;;;;;;;15.26;100.00;100266.34;5043049;28;20041;-53
2022/07/19 01:07:17;;;;;;;1999.90;999.90;;;;;;;15.25;100.00;100254.06;5041413;28;20079;-53
2022/07/19 01:10:04;;;;;;;1999.90;999.90;;;;;;;15.32;100.00;100260.84;5040338;28;20051;-53
2022/07/19 01:12:49;;;;;;;1999.90;999.90;;;;;;;15.39;100.00;100257.91;5043158;28;20045;-53
2022/07/19 01:15:33;;;;;;;1999.90;999.90;;;;;;;15.29;100.00;100261.81;5043836;28;20439;-53
2022/07/19 01:18:18;;;;;;;1999.90;999.90;;;;;;;15.35;100.00;100260.72;5041654;28;20040;-53
2022/07/19 01:21:04;;;;;;;1999.90;999.90;;;;;;;15.43;100.00;100261.28;5041507;28;20049;-53
2022/07/19 01:23:49;;;;;;;1999.90;999.90;;;;;;;15.46;100.00;100252.38;5041584;28;20044;-53
2022/07/19 01:26:34;;;;;;;1999.90;999.90;;;;;;;15.43;100.00;100267.41;5043439;28;20056;-53
2022/07/19 01:29:19;;;;;;;1999.90;999.90;;;;;;;15.41;100.00;100271.91;5042343;28;20049;-53
2022/07/19 01:32:05;;;;;;;1999.90;999.90;;;;;;;15.50;100.00;100261.91;5042562;28;20050;-53
2022/07/19 01:34:49;;;;;;;1999.90;999.90;;;;;;;15.49;100.00;100257.56;5039355;28;20048;-53
2022/07/19 01:37:35;;;;;;;1999.90;999.90;;;;;;;15.40;100.00;100257.00;5041702;28;20492;-53
2022/07/19 01:40:19;;;;;;;1999.90;999.90;;;;;;;15.42;100.00;100257.78;5042137;28;20037;-54
2022/07/19 01:43:07;;;;;;;1999.90;999.90;;;;;;;15.34;100.00;100256.34;5042349;28;20045;-53
2022/07/19 01:45:53;;;;;;;1999.90;999.90;;;;;;;15.34;100.00;100261.63;5041130;28;20059;-53
2022/07/19 01:48:38;;;;;;;1999.90;999.90;;;;;;;15.24;100.00;100263.75;5040396;28;20056;-53
2022/07/19 01:51:22;;;;;;;1999.90;999.90;;;;;;;15.22;100.00;100254.19;5037455;28;20506;-53
2022/07/19 01:54:06;;;;;;;1999.90;999.90;;;;;;;15.26;100.00;100261.91;5043957;28;20041;-53
2022/07/19 01:56:51;;;;;;;1999.90;999.90;;;;;;;15.26;100.00;100255.78;5042391;28;20404;-53
2022/07/19 01:59:36;;;;;;;1999.90;999.90;;;;;;;15.20;100.00;100251.59;5042684;28;20049;-53
2022/07/19 02:02:20;;;;;;;1999.90;999.90;;;;;;;15.31;100.00;100246.78;5042216;28;20041;-53
2022/07/19 02:05:06;;;;;;;1999.90;999.90;;;;;;;15.19;100.00;100245.44;5042501;28;20619;-53
2022/07/19 02:07:51;;;;;;;1999.90;999.90;;;;;;;15.25;100.00;100252.28;5042541;28;20053;-53
2022/07/19 02:10:35;;;;;;;1999.90;999.90;;;;;;;15.24;100.00;100257.59;5043982;28;20497;-53
2022/07/19 02:13:19;;;;;;;1999.90;999.90;;;;;;;15.11;100.00;100247.53;5040992;28;20049;-53
2022/07/19 02:16:04;;;;;;;1999.90;999.90;;;;;;;15.15;100.00;100248.28;5040976;28;20045;-53
2022/07/19 02:18:49;;;;;;;1999.90;999.90;;;;;;;14.96;100.00;100251.56;5042671;28;20045;-53
2022/07/19 02:21:35;;;;;;;1999.90;999.90;;;;;;;14.98;100.00;100246.22;5044261;28;20064;-53
2022/07/19 02:24:20;;;;;;;1999.90;999.90;;;;;;;14.95;100.00;100244.59;5042984;28;20033;-53
2022/07/19 02:27:04;;;;;;;1999.90;999.90;;;;;;;14.87;100.00;100251.03;5041560;28;20045;-52
2022/07/19 02:29:48;;;;;;;1999.90;999.90;;;;;;;14.93;100.00;100250.81;5042724;28;20045;-53
2022/07/19 02:32:33;;;;;;;1999.90;999.90;;;;;;;14.82;100.00;100250.31;5042611;28;20045;-53
2022/07/19 02:35:18;;;;;;;1999.90;999.90;;;;;;;14.82;100.00;100243.31;5041621;28;20049;-54
2022/07/19 02:38:02;;;;;;;1999.90;999.90;;;;;;;14.87;100.00;100238.72;5043383;28;20076;-53
2022/07/19 02:40:47;;;;;;;1999.90;999.90;;;;;;;14.89;100.00;100238.66;5043225;28;20044;-53
2022/07/19 02:43:32;;;;;;;1999.90;999.90;;;;;;;14.95;100.00;100238.44;5039732;28;20049;-53
2022/07/19 02:46:16;;;;;;;1999.90;999.90;;;;;;;14.92;100.00;100244.69;5039995;28;20068;-53
2022/07/19 02:49:00;;;;;;;1999.90;999.90;;;;;;;14.91;100.00;100242.09;5041176;28;20045;-53
2022/07/19 02:51:45;;;;;;;1999.90;999.90;;;;;;;14.98;100.00;100242.72;5038333;28;20061;-53
2022/07/19 02:54:29;;;;;;;1999.90;999.90;;;;;;;15.00;100.00;100241.75;5040671;28;20060;-53
2022/07/19 02:57:13;;;;;;;1999.90;999.90;;;;;;;15.01;100.00;100232.94;5040778;28;20045;-53
2022/07/19 02:59:58;;;;;;;1999.90;999.90;;;;;;;15.07;100.00;100237.13;5042715;28;20380;-53
2022/07/19 03:02:42;;;;;;;1999.90;999.90;;;;;;;15.02;100.00;100241.72;5042245;28;20045;-53
2022/07/19 03:05:27;;;;;;;1999.90;999.90;;;;;;;15.10;100.00;100243.16;5041721;28;20048;-53
2022/07/19 03:08:11;;;;;;;1999.90;999.90;;;;;;;15.12;100.00;100235.19;5040331;28;20081;-53
2022/07/19 03:10:56;;;;;;;1999.90;999.90;;;;;;;15.16;100.00;100237.66;5039232;28;20049;-53
2022/07/19 03:13:40;;;;;;;1999.90;999.90;;;;;;;15.05;100.00;100241.63;5040892;28;20140;-53
2022/07/19 03:16:25;;;;;;;1999.90;999.90;;;;;;;15.17;100.00;100238.50;5044513;28;20045;-53
2022/07/19 03:19:09;;;;;;;1999.90;999.90;;;;;;;15.14;100.00;100243.88;5045565;28;20892;-53
2022/07/19 03:21:55;;;;;;;1999.90;999.90;;;;;;;15.19;100.00;100242.81;5047662;28;20053;-53
2022/07/19 03:24:39;;;;;;;1999.90;999.90;;;;;;;15.31;100.00;100245.94;5045013;28;20054;-53
2022/07/19 03:27:23;;;;;;;1999.90;999.90;;;;;;;15.40;100.00;100250.84;5044337;28;20045;-53
2022/07/19 03:30:08;;;;;;;1999.90;999.90;;;;;;;15.36;100.00;100254.50;5045183;28;20045;-53
2022/07/19 03:32:53;;;;;;;1999.90;999.90;;;;;;;15.38;100.00;100245.63;5045098;28;20045;-53
2022/07/19 03:35:37;;;;;;;1999.90;999.90;;;;;;;15.46;100.00;100244.47;5044969;28;20061;-53
2022/07/19 03:38:22;;;;;;;1999.90;999.90;;;;;;;15.42;100.00;100249.84;5045301;28;20444;-54
2022/07/19 03:41:06;;;;;;;1999.90;999.90;;;;;;;15.54;100.00;100251.19;5046156;28;20041;-54
2022/07/19 03:43:51;;;;;;;1999.90;999.90;;;;;;;15.61;100.00;100247.38;5044060;28;20353;-54
2022/07/19 03:46:35;;;;;;;1999.90;999.90;;;;;;;15.57;100.00;100253.72;5045082;28;20087;-54
2022/07/19 03:49:20;;;;;;;1999.90;999.90;;;;;;;15.64;100.00;100247.25;5044017;28;20385;-54
2022/07/19 03:52:04;;;;;;;1999.90;999.90;;;;;;;15.68;100.00;100255.09;5042895;28;20044;-54
2022/07/19 03:54:49;;;;;;;1999.90;999.90;;;;;;;15.78;100.00;100252.03;5045555;28;20041;-54
2022/07/19 03:57:33;;;;;;;1999.90;999.90;;;;;;;15.28;100.00;100252.16;5044855;28;20060;-54
2022/07/19 04:00:18;;;;;;;1999.90;999.90;;;;;;;15.50;100.00;100240.78;5044300;28;20447;-54
2022/07/19 04:03:03;;;;;;;1999.90;999.90;;;;;;;15.72;100.00;100243.50;5045438;28;20591;-54
2022/07/19 04:05:47;;;;;;;1999.90;999.90;;;;;;;15.87;100.00;100250.81;5040639;28;20045;-53
2022/07/19 04:08:31;;;;;;;1999.90;999.90;;;;;;;15.86;100.00;100242.03;5042814;28;20045;-54
2022/07/19 04:11:16;;;;;;;1999.90;999.90;;;;;;;15.84;100.00;100243.88;5045772;28;20052;-54
2022/07/19 04:14:01;;;;;;;1999.90;999.90;;;;;;;15.93;100.00;100253.22;5043699;28;20447;-54
2022/07/19 04:16:45;;;;;;;1999.90;999.90;;;;;;;16.06;100.00;100251.78;5046819;28;20044;-54
2022/07/19 04:19:31;;;;;;;1999.90;999.90;;;;;;;16.11;100.00;100262.16;5044008;28;20088;-54
2022/07/19 04:22:15;;;;;;;1999.90;999.90;;;;;;;16.00;100.00;100254.69;5043873;28;20387;-53
2022/07/19 04:25:01;;;;;;;1999.90;999.90;;;;;;;16.27;100.00;100255.31;5044202;28;20476;-54
2022/07/19 04:27:47;;;;;;;1999.90;999.90;;;;;;;16.49;100.00;100254.44;5044144;28;20033;-54
2022/07/19 04:30:31;;;;;;;1999.90;999.90;;;;;;;16.50;100.00;100261.44;5043457;28;20132;-54
2022/07/19 04:33:19;;;;;;;1999.90;999.90;;;;;;;16.69;100.00;100254.44;5044496;28;20049;-54
2022/07/19 04:36:04;;;;;;;1999.90;999.90;;;;;;;16.87;100.00;100252.81;5044599;28;20053;-54
2022/07/19 04:38:49;;;;;;;1999.90;999.90;;;;;;;16.74;100.00;100256.91;5044223;28;20049;-55
2022/07/19 04:41:33;;;;;;;1999.90;999.90;;;;;;;16.89;100.00;100255.38;5043416;28;20053;-54
2022/07/19 04:44:17;;;;;;;1999.90;999.90;;;;;;;16.86;100.00;100260.81;5043486;28;20057;-54
2022/07/19 04:47:02;;;;;;;1999.90;999.90;;;;;;;17.12;100.00;100246.41;5041647;28;20453;-54
2022/07/19 04:49:46;;;;;;;1999.90;999.90;;;;;;;17.11;100.00;100250.00;5045324;28;20048;-54
2022/07/19 04:52:30;;;;;;;1999.90;999.90;;;;;;;17.27;100.00;100257.19;5043624;28;20106;-54
2022/07/19 04:55:15;;;;;;;1999.90;999.90;;;;;;;17.35;100.00;100255.97;5044608;28;20052;-53
2022/07/19 04:57:59;;;;;;;1999.90;999.90;;;;;;;17.43;100.00;100262.63;5043662;28;20064;-54
2022/07/19 05:00:44;;;;;;;1999.90;999.90;;;;;;;17.52;100.00;100264.00;5045353;28;20057;-54
2022/07/19 05:03:28;;;;;;;1999.90;999.90;;;;;;;17.64;100.00;100265.19;5043267;28;20356;-54
2022/07/19 05:06:13;;;;;;;1999.90;999.90;;;;;;;17.65;100.00;100261.66;5044034;28;20033;-54
2022/07/19 05:08:57;;;;;;;1999.90;999.90;;;;;;;17.56;100.00;100265.56;5044468;28;20049;-53
2022/07/19 05:11:41;;;;;;;1999.90;999.90;;;;;;;17.82;100.00;100263.53;5046379;28;20049;-54
2022/07/19 05:14:26;;;;;;;1999.90;999.90;;;;;;;17.88;100.00;100256.13;5046283;28;20050;-54
2022/07/19 05:17:10;;;;;;;1999.90;999.90;;;;;;;17.92;100.00;100243.59;5044418;28;20056;-54
2022/07/19 05:19:55;;;;;;;1999.90;999.90;;;;;;;18.05;100.00;100255.31;5042955;28;21697;-54
2022/07/19 05:22:39;;;;;;;1999.90;999.90;;;;;;;18.12;100.00;100246.13;5044172;28;20084;-54
2022/07/19 05:25:23;;;;;;;1999.90;999.90;;;;;;;18.14;100.00;100248.72;5041005;28;20496;-54
2022/07/19 05:28:08;;;;;;;1999.90;999.90;;;;;;;18.40;100.00;100252.72;5046100;28;20040;-54
2022/07/19 05:30:53;;;;;;;1999.90;999.90;;;;;;;18.72;100.00;100248.44;5046417;28;20045;-55
2022/07/19 05:33:37;;;;;;;1999.90;999.90;;;;;;;18.89;100.00;100248.41;5046922;28;20052;-54
2022/07/19 05:36:21;;;;;;;1999.90;999.90;;;;;;;19.45;100.00;100241.00;5044295;28;20431;-55
2022/07/19 05:39:06;;;;;;;1999.90;999.90;;;;;;;19.56;100.00;100241.28;5044076;28;20049;-54
2022/07/19 05:41:51;;;;;;;1999.90;999.90;;;;;;;19.51;100.00;100245.13;5046242;28;20056;-54
2022/07/19 05:44:35;;;;;;;1999.90;999.90;;;;;;;19.39;100.00;100249.28;5044025;28;20049;-55
2022/07/19 05:47:19;;;;;;;1999.90;999.90;;;;;;;19.92;100.00;100249.94;5045680;28;20057;-55
2022/07/19 05:50:05;;;;;;;1999.90;999.90;;;;;;;20.29;100.00;100243.38;5045359;28;20492;-55
2022/07/19 05:52:49;;;;;;;1999.90;999.90;;;;;;;20.24;100.00;100248.09;5043230;28;20045;-55
2022/07/19 05:55:34;;;;;;;1999.90;999.90;;;;;;;20.37;100.00;100250.91;5042212;28;20048;-55
2022/07/19 05:58:18;;;;;;;1999.90;999.90;;;;;;;20.47;100.00;100255.59;5042762;28;20048;-55
2022/07/19 06:01:19;;;;;;;1999.90;999.90;;;;;;;20.53;100.00;100260.56;5043495;28;20679;-55
2022/07/19 06:04:03;;;;;;;1999.90;999.90;;;;;;;20.55;100.00;100271.13;5041685;28;20142;-55
2022/07/19 06:06:48;;;;;;;1999.90;999.90;;;;;;;20.63;100.00;100263.53;5043337;28;20511;-55
2022/07/19 06:09:32;;;;;;;1999.90;999.90;;;;;;;20.58;100.00;100262.13;5042956;28;20045;-55
2022/07/19 06:12:17;;;;;;;1999.90;999.90;;;;;;;20.62;100.00;100259.19;5042697;28;20040;-55
2022/07/19 06:15:01;;;;;;;1999.90;999.90;;;;;;;20.56;100.00;100264.84;5042662;28;20530;-55
2022/07/19 06:17:45;;;;;;;1999.90;999.90;;;;;;;20.71;100.00;100266.63;5044502;28;20048;-55
2022/07/19 06:20:29;;;;;;;1999.90;999.90;;;;;;;20.85;100.00;100270.25;5039915;28;20053;-55
2022/07/19 06:23:14;;;;;;;1999.90;999.90;;;;;;;20.71;100.00;100268.44;5042534;28;20079;-55
2022/07/19 06:25:58;;;;;;;1999.90;999.90;;;;;;;20.76;100.00;100272.50;5043919;28;20102;-55
2022/07/19 06:28:43;;;;;;;1999.90;999.90;;;;;;;21.04;100.00;100262.00;5043059;28;20489;-55
2022/07/19 06:31:27;;;;;;;1999.90;999.90;;;;;;;21.25;100.00;100273.97;5043449;28;20541;-55
2022/07/19 06:34:11;;;;;;;1999.90;999.90;;;;;;;21.62;100.00;100266.38;5041911;28;20045;-56
2022/07/19 06:36:55;;;;;;;1999.90;999.90;;;;;;;22.55;99.81;100264.75;5044222;28;20045;-55
2022/07/19 06:39:40;;;;;;;1999.90;999.90;;;;;;;22.20;97.77;100249.31;5041001;28;20059;-55
2022/07/19 06:42:24;;;;;;;1999.90;999.90;;;;;;;22.23;94.66;100251.78;5039521;28;20041;-56
2022/07/19 06:45:10;;;;;;;1999.90;999.90;;;;;;;23.19;93.32;100255.00;5038467;28;20049;-56
2022/07/19 06:47:55;;;;;;;1999.90;999.90;;;;;;;22.91;93.63;100264.06;5039541;28;20049;-56
2022/07/19 06:50:39;;;;;;;1999.90;999.90;;;;;;;23.01;88.61;100253.59;5042924;28;20049;-57
2022/07/19 06:53:24;;;;;;;1999.90;999.90;;;;;;;23.12;86.50;100252.88;5042378;28;20598;-57
2022/07/19 06:56:08;;;;;;;1999.90;999.90;;;;;;;23.41;86.53;100245.47;5046681;28;20500;-57
2022/07/19 06:58:53;;;;;;;1999.90;999.90;;;;;;;23.83;79.98;100248.69;5049083;28;20073;-57
2022/07/19 07:01:37;;;;;;;1999.90;999.90;;;;;;;24.26;77.14;100257.91;5046336;28;20057;-57
2022/07/19 07:04:22;;;;;;;1999.90;999.90;;;;;;;24.24;78.15;100254.50;5046952;28;20037;-57
2022/07/19 07:07:06;;;;;;;1999.90;999.90;;;;;;;25.31;79.32;100255.25;5045909;28;20041;-56
2022/07/19 07:09:50;;;;;;;1999.90;999.90;;;;;;;25.51;79.42;100253.66;5045875;28;20052;-57
2022/07/19 07:12:36;;;;;;;1999.90;999.90;;;;;;;25.16;72.06;100255.53;5045163;28;20045;-57
2022/07/19 07:15:20;;;;;;;1999.90;999.90;;;;;;;25.54;75.08;100248.91;5045772;28;20095;-57
2022/07/19 07:18:05;;;;;;;1999.90;999.90;;;;;;;26.55;74.12;100247.78;5046186;28;20049;-57
2022/07/19 07:20:49;;;;;;;1999.90;999.90;;;;;;;26.45;72.12;100246.84;5043696;28;20045;-57
2022/07/19 07:23:34;;;;;;;1999.90;999.90;;;;;;;27.08;69.12;100246.88;5045176;28;20045;-58
2022/07/19 07:26:18;;;;;;;1999.90;999.90;;;;;;;27.30;69.83;100244.03;5045527;28;20045;-58
2022/07/19 07:29:03;;;;;;;1999.90;999.90;;;;;;;26.80;67.30;100244.72;5046363;28;20048;-57
2022/07/19 07:31:47;;;;;;;1999.90;999.90;;;;;;;27.47;67.09;100248.75;5043733;28;20065;-57
2022/07/19 07:34:31;;;;;;;1999.90;999.90;;;;;;;28.28;64.81;100247.78;5046192;28;20045;-56
2022/07/19 07:37:15;;;;;;;1999.90;999.90;;;;;;;28.68;66.06;100244.94;5045890;28;20045;-57
2022/07/19 07:40:00;;;;;;;1999.90;999.90;;;;;;;29.13;64.43;100247.00;5046882;28;20045;-57
2022/07/19 07:42:45;;;;;;;1999.90;999.90;;;;;;;28.96;59.28;100251.28;5044664;28;20049;-57
2022/07/19 07:45:31;;;;;;;1999.90;999.90;;;;;;;28.89;57.69;100242.94;5045317;28;20041;-57
2022/07/19 07:48:16;;;;;;;1999.90;999.90;;;;;;;29.08;60.86;100238.47;5045499;28;20057;-57
2022/07/19 07:51:01;;;;;;;1999.90;999.90;;;;;;;29.37;57.06;100256.41;5044248;28;20851;-57
2022/07/19 07:53:45;;;;;;;1999.90;999.90;;;;;;;29.49;61.23;100242.56;5046522;28;20049;-57
2022/07/19 07:56:30;;;;;;;1999.90;999.90;;;;;;;29.42;58.50;100262.22;5048523;28;20123;-58
2022/07/19 07:59:14;;;;;;;1999.90;999.90;;;;;;;30.44;55.07;100252.03;5044041;28;20057;-57
2022/07/19 08:01:59;;;;;;;1999.90;999.90;;;;;;;30.18;56.48;100246.53;5044181;28;20037;-58
2022/07/19 08:04:43;;;;;;;1999.90;999.90;;;;;;;30.02;55.16;100243.69;5042638;28;20808;-58
2022/07/19 08:07:28;;;;;;;1999.90;999.90;;;;;;;30.45;53.70;100239.38;5042264;28;20155;-58
2022/07/19 08:10:12;;;;;;;1999.90;999.90;;;;;;;30.01;50.29;100239.31;5044769;28;20053;-58
2022/07/19 08:12:57;;;;;;;1999.90;999.90;;;;;;;30.39;53.74;100245.44;5041327;28;20065;-59
2022/07/19 08:15:41;;;;;;;1999.90;999.90;;;;;;;29.99;54.05;100250.25;5041887;28;20057;-58
2022/07/19 08:18:26;;;;;;;1999.90;999.90;;;;;;;31.09;51.05;100245.44;5041577;28;20065;-59
2022/07/19 08:21:10;;;;;;;1999.90;999.90;;;;;;;30.88;46.82;100241.28;5042432;28;20132;-58
2022/07/19 08:23:54;;;;;;;1999.90;999.90;;;;;;;31.17;49.99;100240.94;5040441;28;20037;-58
2022/07/19 08:26:39;;;;;;;1999.90;999.90;;;;;;;31.65;45.87;100236.78;5041963;28;20080;-59
2022/07/19 08:29:24;;;;;;;1999.90;999.90;;;;;;;32.09;41.74;100235.69;5042503;28;20041;-58
2022/07/19 08:32:08;;;;;;;1999.90;999.90;;;;;;;31.56;40.11;100235.03;5039787;28;20045;-59
2022/07/19 08:34:54;;;;;;;1999.90;999.90;;;;;;;31.86;41.69;100239.00;5042215;28;20056;-58
2022/07/19 08:37:38;;;;;;;1999.90;999.90;;;;;;;32.61;40.34;100232.69;5040854;28;20587;-59
2022/07/19 08:40:23;;;;;;;1999.90;999.90;;;;;;;32.63;39.27;100230.66;5043232;28;20059;-59
2022/07/19 08:43:09;;;;;;;1999.90;999.90;;;;;;;32.59;40.46;100230.13;5040001;28;20728;-59
2022/07/19 08:45:54;;;;;;;1999.90;999.90;;;;;;;33.12;40.70;100224.28;5041230;28;20388;-58
2022/07/19 08:48:39;;;;;;;1999.90;999.90;;;;;;;33.08;40.88;100231.09;5041602;28;20053;-59
2022/07/19 08:51:24;;;;;;;1999.90;999.90;;;;;;;32.26;38.68;100217.59;5041668;28;20110;-58
2022/07/19 08:54:08;;;;;;;1999.90;999.90;;;;;;;32.63;38.98;100210.81;5039671;28;20403;-58
2022/07/19 08:59:56;;;;;;;1999.90;999.90;;;;;;;33.70;38.18;100223.06;5040223;28;20057;-58
2022/07/19 09:02:54;;;;;;;1999.90;999.90;;;;;;;32.58;36.27;100223.03;5041484;28;20360;-59
2022/07/19 09:05:38;;;;;;;1999.90;999.90;;;;;;;32.19;38.76;100212.00;5043691;28;20080;-58
2022/07/19 09:08:23;;;;;;;1999.90;999.90;;;;;;;32.11;37.76;100217.44;5041615;28;20044;-59
2022/07/19 09:11:16;;;;;;;1999.90;999.90;;;;;;;31.96;36.72;100214.53;5041734;28;20041;-58
2022/07/19 09:14:07;;;;;;;1999.90;999.90;;;;;;;34.03;39.46;100207.44;5042966;28;20076;-57
2022/07/19 09:17:01;;;;;;;1999.90;999.90;;;;;;;33.76;37.13;100205.22;5043585;28;20049;-58
2022/07/19 09:19:47;;;;;;;1999.90;999.90;;;;;;;33.76;35.44;100211.47;5044700;28;20060;-58
2022/07/19 09:22:32;;;;;;;1999.90;999.90;;;;;;;33.91;37.17;100198.81;5044542;28;20086;-58
2022/07/19 09:25:32;;;;;;;1999.90;999.90;;;;;;;33.31;35.32;100202.19;5044317;28;20064;-57
2022/07/19 09:28:18;;;;;;;1999.90;999.90;;;;;;;32.57;34.65;100205.09;5041535;28;20061;-60
2022/07/19 09:31:04;;;;;;;1999.90;999.90;;;;;;;33.60;35.88;100193.41;5041687;28;20057;-59
2022/07/19 09:33:52;;;;;;;1999.90;999.90;;;;;;;33.45;38.02;100192.47;5043031;28;20469;-59
2022/07/19 09:36:36;;;;;;;1999.90;999.90;;;;;;;33.91;32.51;100198.81;5040834;28;20050;-58
2022/07/19 09:39:29;;;;;;;1999.90;999.90;;;;;;;33.62;35.33;100193.25;5040919;28;20055;-59
2022/07/19 09:42:20;;;;;;;1999.90;999.90;;;;;;;34.03;34.03;100201.13;5042651;28;20048;-58
2022/07/19 09:45:06;;;;;;;;;;;;;;;33.37;34.05;100190.63;5042705;28;20589;-60
2022/07/19 09:47:50;;;;;;;1999.90;999.90;;;;;;;34.18;31.41;100189.31;5041460;28;19952;-58
2022/07/19 09:50:35;;;;;;;1999.90;999.90;;;;;;;34.54;33.33;100188.66;5041544;28;20037;-59
2022/07/19 09:53:20;;;;;;;1999.90;999.90;;;;;;;33.76;33.95;100183.47;5041245;28;20053;-58
2022/07/19 09:56:05;;;;;;;1999.90;999.90;;;;;;;34.54;34.61;100191.38;5042328;28;20136;-58
2022/07/19 09:58:50;;;;;;;1999.90;999.90;;;;;;;34.29;33.17;100195.31;5042121;28;20531;-58
2022/07/19 10:01:36;;;;;;;1999.90;999.90;;;;;;;33.60;33.76;100192.56;5043233;28;20041;-59
2022/07/19 10:04:25;;;;;;;1999.90;999.90;;;;;;;34.73;34.03;100184.56;5041220;28;20041;-57
2022/07/19 10:07:12;;;;;;;1999.90;999.90;;;;;;;33.15;33.45;100177.81;5041603;28;20053;-57
2022/07/19 10:10:01;;;;;;;1999.90;999.90;;;;;;;34.36;30.83;100174.56;5040045;28;20106;-58
2022/07/19 10:12:48;;;;;;;1999.90;999.90;;;;;;;34.42;30.37;100169.22;5042859;28;20045;-58
2022/07/19 10:15:39;;;;;;;1999.90;999.90;;;;;;;34.27;34.35;100181.94;5040648;28;20083;-59
2022/07/19 10:18:32;;;;;;;1999.90;999.90;;;;;;;33.73;32.87;100171.09;5042906;28;20044;-58
2022/07/19 10:21:17;;;;;;;1999.90;999.90;;;;;;;34.51;34.00;100171.84;5042692;28;20045;-58
2022/07/19 10:24:02;;;;;;;1999.90;999.90;;;;;;;34.87;34.09;100180.16;5040187;28;20045;-57
2022/07/19 10:26:55;;;;;;;1999.90;999.90;;;;;;;34.96;31.11;100159.16;5042583;28;20475;-58
2022/07/19 10:29:40;;;;;;;1999.90;999.90;;;;;;;34.33;32.75;100167.63;5042639;28;20060;-58
2022/07/19 10:32:30;;;;;;;1999.90;999.90;;;;;;;34.79;33.56;100172.94;5041497;28;20040;-58
2022/07/19 10:35:15;;;;;;;1999.90;999.90;;;;;;;35.76;28.55;100163.75;5040752;28;20069;-58
2022/07/19 10:38:03;;;;;;;1999.90;999.90;;;;;;;34.69;31.38;100161.50;5040921;28;20476;-58
2022/07/19 10:40:50;;;;;;;1999.90;999.90;;;;;;;34.72;33.63;100158.41;5040640;28;20047;-58
2022/07/19 10:43:35;;;;;;;1999.90;999.90;;;;;;;34.72;30.42;100160.31;5041558;28;20049;-58
2022/07/19 10:46:31;;;;;;;1999.90;999.90;;;;;;;34.38;31.48;100159.72;5041626;28;20041;-57
2022/07/19 10:49:42;;;;;;;1999.90;999.90;;;;;;;34.78;30.15;100152.22;5040630;28;20053;-57
2022/07/19 10:52:26;;;;;;;1999.90;999.90;;;;;;;34.40;30.41;100145.97;5038649;28;20120;-58
2022/07/19 10:55:18;;;;;;;1999.90;999.90;;;;;;;33.45;31.14;100149.88;5039689;28;20049;-58
2022/07/19 10:58:05;;;;;;;1999.90;999.90;;;;;;;33.96;32.46;100146.66;5040510;28;20049;-58
2022/07/19 11:00:49;;;;;;;1999.90;999.90;;;;;;;34.39;32.59;100144.28;5040580;28;20045;-58
2022/07/19 11:03:34;;;;;;;1999.90;999.90;;;;;;;33.40;32.23;100129.72;5040038;28;20143;-58
2022/07/19 11:06:21;;;;;;;1999.90;999.90;;;;;;;33.53;32.05;100132.72;5037276;28;20033;-57
2022/07/19 11:09:05;;;;;;;1999.90;999.90;;;;;;;33.48;32.05;100135.09;5037613;28;20683;-58
2022/07/19 11:11:50;;;;;;;1999.90;999.90;;;;;;;35.03;31.37;100136.47;5039391;28;20052;-57
2022/07/19 11:14:42;;;;;;;1999.90;999.90;;;;;;;33.70;31.87;100134.31;5038492;28;20065;-57
2022/07/19 11:17:27;;;;;;;1999.90;999.90;;;;;;;34.51;31.75;100137.34;5038587;28;20056;-57
2022/07/19 11:20:15;;;;;;;1999.90;999.90;;;;;;;34.95;32.69;100124.84;5037911;28;20613;-56
2022/07/19 11:23:03;;;;;;;1999.90;999.90;;;;;;;34.09;30.61;100129.78;5042986;28;20118;-57
2022/07/19 11:25:50;;;;;;;1999.90;999.90;;;;;;;34.71;31.17;100128.69;5042758;28;20060;-58
2022/07/19 11:28:37;;;;;;;1999.90;999.90;;;;;;;33.70;33.04;100128.88;5042357;28;20052;-58
2022/07/19 11:31:24;;;;;;;1999.90;999.90;;;;;;;33.71;31.19;100122.41;5043857;28;20044;-58
2022/07/19 11:34:13;;;;;;;1999.90;999.90;;;;;;;34.19;32.43;100124.97;5042809;28;20049;-58
2022/07/19 11:36:57;;;;;;;1999.90;999.90;;;;;;;34.43;28.75;100121.13;5044916;28;20045;-57
2022/07/19 11:39:49;;;;;;;1999.90;999.90;;;;;;;35.10;29.15;100129.25;5046785;28;20057;-58
2022/07/19 11:42:38;;;;;;;1999.90;999.90;;;;;;;34.98;31.79;100121.75;5045329;28;20071;-57
2022/07/19 11:45:25;;;;;;;1999.90;999.90;;;;;;;34.96;30.75;100113.75;5045347;28;20564;-57
2022/07/19 11:48:09;;;;;;;1999.90;999.90;;;;;;;34.81;31.09;100113.78;5047230;28;20037;-57
2022/07/19 11:51:07;;;;;;;1999.90;999.90;;;;;;;34.54;29.16;100120.69;5045804;28;20044;-58
2022/07/19 11:53:55;;;;;;;1999.90;999.90;;;;;;;34.96;31.73;100119.19;5045964;28;20599;-58
2022/07/19 11:56:39;;;;;;;1999.90;999.90;;;;;;;34.87;31.24;100114.88;5043152;28;20041;-58
2022/07/19 11:59:23;;;;;;;1999.90;999.90;;;;;;;34.92;30.12;100122.50;5046338;28;20045;-58
2022/07/19 12:02:08;;;;;;;1999.90;999.90;;;;;;;34.60;30.67;100119.13;5045426;28;20052;-57
2022/07/19 12:04:52;;;;;;;1999.90;999.90;;;;;;;34.52;30.53;100116.47;5045162;28;20136;-58